createdAt,value
2023-02-22T00:02:28.449Z,7.36
2023-02-22T00:06:31.308Z,7.38
2023-02-22T00:10:33.942Z,7.42
2023-02-22T00:14:35.678Z,7.43
2023-02-22T00:18:37.453Z,7.47
2023-02-22T00:22:40.742Z,7.44
2023-02-22T00:26:42.150Z,7.41
2023-02-22T00:30:44.172Z,7.40
2023-02-22T00:34:45.588Z,7.41
2023-02-22T00:38:47.024Z,7.41
2023-02-22T00:42:49.275Z,7.51
2023-02-22T00:46:50.653Z,7.61
2023-02-22T00:50:54.478Z,7.67
2023-02-22T00:54:57.381Z,7.76
2023-02-22T00:59:00.269Z,7.84
2023-02-22T01:03:01.766Z,7.85
2023-02-22T01:07:03.765Z,7.85
2023-02-22T01:11:05.473Z,7.86
2023-02-22T01:15:11.713Z,7.89
2023-02-22T01:19:13.216Z,7.86
2023-02-22T01:23:16.646Z,7.86
2023-02-22T01:27:18.184Z,7.87
2023-02-22T01:31:20.069Z,7.84
2023-02-22T01:35:27.091Z,7.83
2023-02-22T01:39:28.558Z,7.71
2023-02-22T01:43:32.133Z,7.58
2023-02-22T01:47:33.817Z,7.59
2023-02-22T01:51:43.525Z,7.66
2023-02-22T01:55:46.722Z,7.71
2023-02-22T01:59:52.270Z,7.79
2023-02-22T02:03:57.545Z,7.83
2023-02-22T02:08:05.001Z,7.85
2023-02-22T02:12:10.349Z,7.81
2023-02-22T02:16:12.044Z,7.64
2023-02-22T02:20:23.257Z,7.68
2023-02-22T02:24:33.622Z,7.78
2023-02-22T02:28:50.467Z,7.90
2023-02-22T02:32:55.323Z,7.96
2023-02-22T02:37:18.629Z,7.94
2023-02-22T02:41:41.495Z,7.93
2023-02-22T02:46:02.134Z,7.96
2023-02-22T02:50:12.742Z,8.00
2023-02-22T02:54:15.301Z,8.01
2023-02-22T02:58:20.493Z,8.01
2023-02-22T03:02:38.923Z,7.96
2023-02-22T03:06:58.244Z,7.98
2023-02-22T03:11:17.785Z,7.98
2023-02-22T03:15:25.278Z,7.94
2023-02-22T03:19:34.099Z,7.91
2023-02-22T03:23:47.710Z,7.87
2023-02-22T03:27:54.099Z,7.88
2023-02-22T03:32:00.611Z,7.94
2023-02-22T03:36:28.900Z,8.02
2023-02-22T03:40:35.937Z,8.07
2023-02-22T03:44:39.793Z,8.03
2023-02-22T03:48:53.731Z,7.98
2023-02-22T03:52:58.499Z,7.94
2023-02-22T03:57:22.112Z,7.98
2023-02-22T04:01:23.677Z,8.00
2023-02-22T04:11:00.807Z,8.07
2023-02-22T04:15:04.698Z,8.07
2023-02-22T04:19:06.599Z,8.07
2023-02-22T04:23:08.311Z,8.05
2023-02-22T04:27:11.429Z,8.02
2023-02-22T04:31:13.412Z,7.98
2023-02-22T04:35:15.075Z,7.93
2023-02-22T04:39:16.842Z,7.91
2023-02-22T04:43:18.940Z,7.92
2023-02-22T04:47:20.593Z,7.92
2023-02-22T04:51:22.076Z,7.91
2023-02-22T04:55:24.076Z,7.88
2023-02-22T04:59:25.898Z,7.86
2023-02-22T05:03:27.855Z,7.89
2023-02-22T05:07:32.674Z,7.98
2023-02-22T05:11:34.750Z,8.06
2023-02-22T05:15:36.497Z,8.09
2023-02-22T05:19:38.441Z,8.10
2023-02-22T05:23:41.104Z,8.23
2023-02-22T05:27:43.010Z,8.33
2023-02-22T05:31:45.410Z,8.34
2023-02-22T05:35:47.929Z,8.35
2023-02-22T05:39:55.372Z,8.38
2023-02-22T05:43:58.641Z,8.45
2023-02-22T05:48:00.421Z,8.53
2023-02-22T05:52:02.166Z,8.56
2023-02-22T05:56:04.286Z,8.62
2023-02-22T06:00:08.180Z,8.66
2023-02-22T06:04:09.946Z,8.74
2023-02-22T06:08:11.746Z,8.76
2023-02-22T06:12:13.491Z,8.72
2023-02-22T06:16:15.177Z,8.66
2023-02-22T06:20:19.989Z,8.72
2023-02-22T06:24:22.625Z,8.82
2023-02-22T06:28:25.710Z,8.79
2023-02-22T06:32:32.815Z,8.67
2023-02-22T06:36:35.737Z,8.59
2023-02-22T06:40:38.288Z,8.62
2023-02-22T06:44:40.068Z,8.63
2023-02-22T06:48:42.540Z,8.72
2023-02-22T06:52:44.423Z,8.80
2023-02-22T06:56:46.571Z,8.94
2023-02-22T07:00:48.913Z,9.16
2023-02-22T07:04:50.912Z,9.35
2023-02-22T07:08:54.129Z,9.47
2023-02-22T07:12:56.247Z,9.58
2023-02-22T07:16:59.072Z,9.67
2023-02-22T07:21:00.775Z,9.80
2023-02-22T07:25:09.531Z,9.89
2023-02-22T07:29:11.393Z,9.92
2023-02-22T07:33:13.535Z,10.02
2023-02-22T07:37:15.228Z,10.06
2023-02-22T07:41:17.285Z,10.09
2023-02-22T07:45:19.884Z,10.17
2023-02-22T07:49:21.627Z,10.23
2023-02-22T07:53:29.468Z,10.28
2023-02-22T07:57:31.274Z,10.19
2023-02-22T08:01:33.194Z,9.89
2023-02-22T08:05:38.151Z,9.85
2023-02-22T08:09:40.161Z,9.90
2023-02-22T08:13:42.757Z,10.00
2023-02-22T08:17:44.547Z,10.11
2023-02-22T08:21:46.804Z,10.22
2023-02-22T08:25:48.641Z,10.26
2023-02-22T08:29:50.775Z,10.27
2023-02-22T08:33:53.241Z,10.32
2023-02-22T08:38:01.937Z,10.43
2023-02-22T08:42:03.939Z,10.71
2023-02-22T08:46:05.715Z,10.88
2023-02-22T08:50:10.046Z,10.95
2023-02-22T08:54:12.072Z,11.08
2023-02-22T08:58:14.381Z,11.20
2023-02-22T09:02:18.576Z,11.28
2023-02-22T09:06:20.423Z,11.34
2023-02-22T09:10:26.438Z,11.44
2023-02-22T09:14:28.354Z,11.52
2023-02-22T09:18:42.287Z,11.69
2023-02-22T09:22:46.618Z,11.73
2023-02-22T09:26:53.587Z,11.76
2023-02-22T09:30:56.470Z,11.77
2023-02-22T09:34:58.295Z,11.86
2023-02-22T09:39:00.401Z,11.96
2023-02-22T09:43:30.578Z,11.96
2023-02-22T09:47:41.758Z,11.90
2023-02-22T09:51:49.996Z,11.73
2023-02-22T09:55:52.857Z,11.60
2023-02-22T10:00:13.006Z,11.61
2023-02-22T10:04:36.256Z,11.41
2023-02-22T10:08:38.526Z,11.32
2023-02-22T10:12:59.386Z,11.27
2023-02-22T10:17:23.442Z,11.22
2023-02-22T10:21:53.013Z,11.27
2023-02-22T10:26:20.228Z,11.30
2023-02-22T10:30:25.604Z,11.34
2023-02-22T10:34:35.600Z,11.12
2023-02-22T10:38:38.657Z,11.02
2023-02-22T10:42:40.421Z,11.13
2023-02-22T10:46:42.967Z,11.28
2023-02-22T10:50:46.046Z,11.36
2023-02-22T10:54:51.322Z,11.37
2023-02-22T10:59:06.830Z,11.40
2023-02-22T11:03:20.333Z,11.43
2023-02-22T11:07:31.483Z,11.47
2023-02-22T11:11:33.486Z,11.51
2023-02-22T11:15:35.506Z,11.54
2023-02-22T11:19:38.567Z,11.58
2023-02-22T11:23:44.818Z,11.64
2023-02-22T11:27:47.036Z,11.77
2023-02-22T11:31:50.088Z,11.90
2023-02-22T11:36:08.746Z,11.95
2023-02-22T11:40:22.087Z,11.99
2023-02-22T11:44:27.114Z,12.05
2023-02-22T11:48:35.989Z,12.14
2023-02-22T11:52:49.158Z,12.28
2023-02-22T11:56:59.716Z,12.26
2023-02-22T12:01:30.781Z,12.29
2023-02-22T12:05:44.648Z,12.34
2023-02-22T12:10:08.612Z,12.39
2023-02-22T12:14:22.790Z,12.49
2023-02-22T12:18:35.451Z,12.57
2023-02-22T12:22:46.992Z,12.59
2023-02-22T12:27:00.549Z,12.56
2023-02-22T12:31:14.072Z,12.55
2023-02-22T12:35:23.008Z,12.55
2023-02-22T12:39:53.592Z,12.50
2023-02-22T12:44:10.007Z,12.48
2023-02-22T12:48:32.733Z,12.47
2023-02-22T12:52:55.495Z,12.42
2023-02-22T12:57:21.588Z,12.41
2023-02-22T13:01:29.527Z,12.45
2023-02-22T13:05:38.600Z,12.45
2023-02-22T13:09:59.131Z,12.32
2023-02-22T13:14:07.427Z,12.42
2023-02-22T13:18:17.595Z,12.45
2023-02-22T13:22:46.802Z,12.32
2023-02-22T13:27:06.091Z,12.40
2023-02-22T13:31:15.199Z,12.23
2023-02-22T13:35:29.168Z,12.12
2023-02-22T13:40:06.040Z,12.03
2023-02-22T13:44:41.648Z,12.02
2023-02-22T13:48:54.427Z,12.02
2023-02-22T13:52:58.593Z,12.05
2023-02-22T13:57:02.440Z,12.09
2023-02-22T14:01:03.899Z,12.11
2023-02-22T14:05:34.502Z,12.07
2023-02-22T14:09:50.390Z,12.06
2023-02-22T14:13:53.113Z,12.00
2023-02-22T14:18:00.382Z,11.93
2023-02-22T14:22:05.213Z,11.89
2023-02-22T14:26:26.894Z,11.92
2023-02-22T14:30:44.048Z,11.93
2023-02-22T15:19:03.327Z,10.93
2023-02-22T15:23:05.425Z,10.69
2023-02-22T15:27:19.143Z,10.47
2023-02-22T15:31:34.305Z,10.36
2023-02-22T15:35:37.219Z,10.28
2023-02-22T15:39:43.373Z,10.09
2023-02-22T15:43:45.415Z,9.94
2023-02-22T15:47:53.858Z,9.73
2023-02-22T15:52:09.547Z,9.65
2023-02-22T15:56:25.330Z,9.69
2023-02-22T16:00:35.566Z,9.64
2023-02-22T16:09:17.661Z,9.58
2023-02-22T16:45:36.251Z,10.10
2023-02-22T16:49:37.665Z,10.05
2023-02-22T16:53:39.130Z,9.98
2023-02-22T16:58:34.023Z,9.91
2023-02-22T17:02:35.464Z,9.80
2023-02-22T17:06:44.191Z,9.62
2023-02-22T17:10:50.804Z,9.49
2023-02-22T17:15:59.407Z,9.41
2023-02-22T17:20:00.970Z,9.22
2023-02-22T17:25:07.763Z,9.16
2023-02-22T17:29:09.421Z,9.06
2023-02-22T17:33:17.305Z,8.96
2023-02-22T17:37:45.374Z,8.89
2023-02-22T17:41:54.893Z,8.80
2023-02-22T17:45:56.630Z,8.72
2023-02-22T17:49:58.174Z,8.71
2023-02-22T17:53:59.632Z,8.68
2023-02-22T17:58:01.096Z,8.60
2023-02-22T18:02:02.756Z,8.54
2023-02-22T18:06:05.314Z,8.47
2023-02-22T18:10:12.594Z,8.41
2023-02-22T18:14:14.070Z,8.33
2023-02-22T18:18:17.182Z,8.23
2023-02-22T18:22:22.151Z,8.10
2023-02-22T18:26:25.330Z,7.95
2023-02-22T18:30:27.111Z,7.88
2023-02-22T18:34:39.815Z,7.83
2023-02-22T18:38:43.077Z,7.78
2023-02-22T18:42:45.901Z,7.70
2023-02-22T18:46:47.384Z,7.68
2023-02-22T18:51:12.024Z,7.67
2023-02-22T18:55:23.749Z,7.63
2023-02-22T18:59:25.468Z,7.53
2023-02-22T19:03:28.055Z,7.39
2023-02-22T19:07:29.515Z,7.30
2023-02-22T19:11:35.543Z,7.19
2023-02-22T19:16:06.733Z,7.12
2023-02-22T19:20:11.581Z,7.09
2023-02-22T19:24:13.067Z,7.16
2023-02-22T19:28:40.794Z,7.20
2023-02-22T19:32:46.643Z,7.26
2023-02-22T19:37:47.480Z,7.30
2023-02-22T19:41:50.239Z,7.34
2023-02-22T19:45:51.698Z,7.37
2023-02-22T19:49:54.944Z,7.39
2023-02-22T19:54:02.066Z,7.40
2023-02-22T19:58:03.466Z,7.32
2023-02-22T20:02:04.997Z,7.30
2023-02-22T20:06:09.328Z,7.36
2023-02-22T20:10:11.879Z,7.34
2023-02-22T20:14:17.317Z,7.27
2023-02-22T20:18:22.266Z,7.22
2023-02-22T20:22:23.815Z,7.21
2023-02-22T20:26:27.734Z,7.24
2023-02-22T20:36:12.182Z,7.27
2023-02-22T20:40:13.887Z,7.22
2023-02-22T20:44:17.173Z,7.18
2023-02-22T20:48:20.319Z,7.13
2023-02-22T20:52:44.766Z,7.11
2023-02-22T20:56:46.989Z,7.05
2023-02-22T21:00:48.890Z,7.02
2023-02-22T21:04:50.955Z,6.91
2023-02-22T21:09:52.694Z,6.85
2023-02-22T21:13:54.364Z,6.75
2023-02-22T21:17:56.520Z,6.67
2023-02-22T21:27:33.104Z,6.45
2023-02-22T21:31:35.981Z,6.37
2023-02-22T21:35:39.666Z,6.28
2023-02-22T21:39:41.034Z,6.21
2023-02-22T21:43:50.039Z,6.16
2023-02-22T21:47:53.973Z,6.08
2023-02-22T21:52:25.109Z,6.04
2023-02-22T21:56:28.107Z,5.99
2023-02-22T22:00:30.497Z,5.89
2023-02-22T22:05:32.699Z,5.79
2023-02-22T22:09:37.103Z,5.69
2023-02-22T22:14:03.842Z,5.59
2023-02-22T22:18:06.636Z,5.52
2023-02-22T22:22:08.626Z,5.43
2023-02-22T22:26:16.790Z,5.38
2023-02-22T22:30:18.344Z,5.34
2023-02-22T22:34:20.611Z,5.24
2023-02-22T22:38:22.177Z,5.14
2023-02-22T22:42:24.491Z,5.09
2023-02-22T22:46:26.642Z,5.02
2023-02-22T22:50:29.092Z,4.99
2023-02-22T22:54:31.082Z,4.96
2023-02-22T22:58:35.908Z,4.91
2023-02-22T23:02:37.376Z,4.90
2023-02-22T23:06:41.689Z,4.89
2023-02-22T23:10:43.246Z,4.84
2023-02-22T23:14:45.157Z,4.83
2023-02-22T23:18:46.700Z,4.77
2023-02-22T23:22:48.168Z,4.70
2023-02-22T23:26:49.660Z,4.62
2023-02-22T23:30:51.203Z,4.58
2023-02-22T23:34:52.789Z,4.51
2023-02-22T23:38:54.356Z,4.48
2023-02-22T23:42:55.932Z,4.47
2023-02-22T23:46:57.413Z,4.41
2023-02-22T23:50:58.933Z,4.38
2023-02-22T23:55:04.821Z,4.34
2023-02-22T23:59:11.814Z,4.27
